Kasserine, Tunisia
Current Conditions -  °F | °C
As of 12:00 AM on Sunday 21 Dec 2014 (Local Time) from DABS Reporting Station
Scattered Clouds Scattered Clouds  
Wind Chill: 40°   Ceiling: Unl
Heat Index: 43°   Visibility: 6mi
Dew Point: 41°   Wind: 5mph
Humidity: 93%   Direction: 300°WNW
Pressure: 30.42"   Gusts: NA
Location:  35.17°N, 8.83°E
Report Text: DABS 202300Z 30004KT 9999 SCT040 06/05 Q1030
Loading
Personal Weather Stations






























Interactive Weather Map New forecast layout! Learn more

10-Day Weather Forecast

Advertisements
Track Severe Weather on mobile